sensor_id;sensor_type;location;lat;lon;timestamp;P1;durP1;ratioP1;P2;durP2;ratioP2
48034;SDS011;33812;46.480;6.834;2023-01-15T00:01:21;1.30;;;0.70;;
48034;SDS011;33812;46.480;6.834;2023-01-15T00:05:24;1.05;;;0.60;;
48034;SDS011;33812;46.480;6.834;2023-01-15T00:09:26;1.92;;;0.82;;
48034;SDS011;33812;46.480;6.834;2023-01-15T00:13:28;0.63;;;0.52;;
48034;SDS011;33812;46.480;6.834;2023-01-15T00:17:31;1.75;;;0.55;;
48034;SDS011;33812;46.480;6.834;2023-01-15T00:21:33;1.33;;;0.90;;
48034;SDS011;33812;46.480;6.834;2023-01-15T00:25:36;1.67;;;0.68;;
48034;SDS011;33812;46.480;6.834;2023-01-15T00:30:10;1.13;;;0.70;;
48034;SDS011;33812;46.480;6.834;2023-01-15T00:34:15;0.73;;;0.60;;
48034;SDS011;33812;46.480;6.834;2023-01-15T00:38:18;1.00;;;0.90;;
48034;SDS011;33812;46.480;6.834;2023-01-15T00:42:19;1.08;;;0.60;;
48034;SDS011;33812;46.480;6.834;2023-01-15T00:46:21;2.97;;;0.90;;
48034;SDS011;33812;46.480;6.834;2023-01-15T00:50:24;1.92;;;1.00;;
48034;SDS011;33812;46.480;6.834;2023-01-15T00:54:26;1.15;;;0.75;;
48034;SDS011;33812;46.480;6.834;2023-01-15T00:58:28;1.75;;;0.68;;
48034;SDS011;33812;46.480;6.834;2023-01-15T01:02:30;1.05;;;0.80;;
48034;SDS011;33812;46.480;6.834;2023-01-15T01:06:33;3.03;;;0.93;;
48034;SDS011;33812;46.480;6.834;2023-01-15T01:10:34;1.05;;;0.77;;
48034;SDS011;33812;46.480;6.834;2023-01-15T01:14:36;0.70;;;0.70;;
48034;SDS011;33812;46.480;6.834;2023-01-15T01:18:38;1.30;;;0.70;;
48034;SDS011;33812;46.480;6.834;2023-01-15T01:22:42;0.90;;;0.70;;
48034;SDS011;33812;46.480;6.834;2023-01-15T01:26:44;1.42;;;0.85;;
48034;SDS011;33812;46.480;6.834;2023-01-15T01:30:46;1.10;;;0.80;;
48034;SDS011;33812;46.480;6.834;2023-01-15T01:34:48;2.72;;;0.80;;
48034;SDS011;33812;46.480;6.834;2023-01-15T01:38:51;2.85;;;0.80;;
48034;SDS011;33812;46.480;6.834;2023-01-15T01:42:53;0.98;;;0.90;;
48034;SDS011;33812;46.480;6.834;2023-01-15T01:46:54;0.88;;;0.52;;
48034;SDS011;33812;46.480;6.834;2023-01-15T01:55:00;0.82;;;0.60;;
48034;SDS011;33812;46.480;6.834;2023-01-15T02:03:07;1.63;;;0.90;;
48034;SDS011;33812;46.480;6.834;2023-01-15T02:07:09;1.90;;;0.70;;
48034;SDS011;33812;46.480;6.834;2023-01-15T02:11:13;0.68;;;0.60;;
48034;SDS011;33812;46.480;6.834;2023-01-15T02:15:18;0.88;;;0.70;;
48034;SDS011;33812;46.480;6.834;2023-01-15T02:19:29;0.85;;;0.60;;
48034;SDS011;33812;46.480;6.834;2023-01-15T02:23:49;1.63;;;0.75;;
48034;SDS011;33812;46.480;6.834;2023-01-15T02:28:03;0.65;;;0.52;;
48034;SDS011;33812;46.480;6.834;2023-01-15T02:32:12;0.85;;;0.70;;
48034;SDS011;33812;46.480;6.834;2023-01-15T02:36:17;1.40;;;0.88;;
48034;SDS011;33812;46.480;6.834;2023-01-15T02:44:26;3.42;;;0.80;;
48034;SDS011;33812;46.480;6.834;2023-01-15T02:48:31;0.80;;;0.50;;
48034;SDS011;33812;46.480;6.834;2023-01-15T02:52:37;0.70;;;0.55;;
48034;SDS011;33812;46.480;6.834;2023-01-15T02:56:44;1.27;;;0.60;;
48034;SDS011;33812;46.480;6.834;2023-01-15T03:00:51;1.10;;;0.77;;
48034;SDS011;33812;46.480;6.834;2023-01-15T03:04:59;1.08;;;0.63;;
48034;SDS011;33812;46.480;6.834;2023-01-15T03:09:05;0.70;;;0.60;;
48034;SDS011;33812;46.480;6.834;2023-01-15T03:13:08;0.63;;;0.55;;
48034;SDS011;33812;46.480;6.834;2023-01-15T03:17:15;1.60;;;0.70;;
48034;SDS011;33812;46.480;6.834;2023-01-15T03:21:25;0.55;;;0.55;;
48034;SDS011;33812;46.480;6.834;2023-01-15T03:25:33;1.45;;;0.57;;
48034;SDS011;33812;46.480;6.834;2023-01-15T03:29:38;1.65;;;0.65;;
48034;SDS011;33812;46.480;6.834;2023-01-15T03:33:44;0.70;;;0.55;;
48034;SDS011;33812;46.480;6.834;2023-01-15T03:37:47;0.75;;;0.55;;
48034;SDS011;33812;46.480;6.834;2023-01-15T03:41:51;1.10;;;0.60;;
48034;SDS011;33812;46.480;6.834;2023-01-15T03:46:13;1.02;;;0.65;;
48034;SDS011;33812;46.480;6.834;2023-01-15T03:50:29;0.95;;;0.50;;
48034;SDS011;33812;46.480;6.834;2023-01-15T03:54:37;1.17;;;0.60;;
48034;SDS011;33812;46.480;6.834;2023-01-15T03:58:46;0.85;;;0.68;;
48034;SDS011;33812;46.480;6.834;2023-01-15T04:02:52;0.80;;;0.60;;
48034;SDS011;33812;46.480;6.834;2023-01-15T04:06:58;1.02;;;0.60;;
48034;SDS011;33812;46.480;6.834;2023-01-15T04:11:00;1.67;;;0.68;;
48034;SDS011;33812;46.480;6.834;2023-01-15T04:15:02;0.85;;;0.55;;
48034;SDS011;33812;46.480;6.834;2023-01-15T04:19:05;0.60;;;0.50;;
48034;SDS011;33812;46.480;6.834;2023-01-15T04:23:08;1.23;;;0.60;;
48034;SDS011;33812;46.480;6.834;2023-01-15T04:27:09;1.75;;;0.63;;
48034;SDS011;33812;46.480;6.834;2023-01-15T04:31:11;0.80;;;0.60;;
48034;SDS011;33812;46.480;6.834;2023-01-15T04:35:13;0.60;;;0.50;;
48034;SDS011;33812;46.480;6.834;2023-01-15T04:39:16;1.85;;;0.60;;
48034;SDS011;33812;46.480;6.834;2023-01-15T04:43:18;0.80;;;0.40;;
48034;SDS011;33812;46.480;6.834;2023-01-15T04:47:37;0.88;;;0.60;;
48034;SDS011;33812;46.480;6.834;2023-01-15T04:51:39;0.75;;;0.63;;
48034;SDS011;33812;46.480;6.834;2023-01-15T04:55:42;2.00;;;0.60;;
48034;SDS011;33812;46.480;6.834;2023-01-15T04:59:44;0.82;;;0.60;;
48034;SDS011;33812;46.480;6.834;2023-01-15T05:03:46;0.60;;;0.60;;
48034;SDS011;33812;46.480;6.834;2023-01-15T05:07:48;0.80;;;0.50;;
48034;SDS011;33812;46.480;6.834;2023-01-15T05:11:51;0.82;;;0.60;;
48034;SDS011;33812;46.480;6.834;2023-01-15T05:15:52;0.70;;;0.70;;
48034;SDS011;33812;46.480;6.834;2023-01-15T05:19:56;0.55;;;0.50;;
48034;SDS011;33812;46.480;6.834;2023-01-15T05:23:58;0.98;;;0.55;;
48034;SDS011;33812;46.480;6.834;2023-01-15T05:28:03;0.70;;;0.40;;
48034;SDS011;33812;46.480;6.834;2023-01-15T05:32:05;0.73;;;0.60;;
48034;SDS011;33812;46.480;6.834;2023-01-15T05:36:08;0.73;;;0.55;;
48034;SDS011;33812;46.480;6.834;2023-01-15T05:40:11;0.70;;;0.50;;
48034;SDS011;33812;46.480;6.834;2023-01-15T05:44:15;0.80;;;0.60;;
48034;SDS011;33812;46.480;6.834;2023-01-15T05:48:19;0.98;;;0.77;;
48034;SDS011;33812;46.480;6.834;2023-01-15T05:52:20;0.80;;;0.55;;
48034;SDS011;33812;46.480;6.834;2023-01-15T05:56:24;0.57;;;0.52;;
48034;SDS011;33812;46.480;6.834;2023-01-15T06:00:28;0.70;;;0.50;;
48034;SDS011;33812;46.480;6.834;2023-01-15T06:04:29;0.70;;;0.50;;
48034;SDS011;33812;46.480;6.834;2023-01-15T06:08:31;0.82;;;0.43;;
48034;SDS011;33812;46.480;6.834;2023-01-15T06:12:33;0.57;;;0.55;;
48034;SDS011;33812;46.480;6.834;2023-01-15T06:16:36;1.00;;;0.63;;
48034;SDS011;33812;46.480;6.834;2023-01-15T06:20:39;0.68;;;0.50;;
48034;SDS011;33812;46.480;6.834;2023-01-15T06:24:42;0.70;;;0.50;;
48034;SDS011;33812;46.480;6.834;2023-01-15T06:28:46;1.23;;;0.60;;
48034;SDS011;33812;46.480;6.834;2023-01-15T06:32:49;0.55;;;0.45;;
48034;SDS011;33812;46.480;6.834;2023-01-15T06:36:51;0.75;;;0.57;;
48034;SDS011;33812;46.480;6.834;2023-01-15T06:40:56;0.70;;;0.50;;
48034;SDS011;33812;46.480;6.834;2023-01-15T06:44:58;0.65;;;0.50;;
48034;SDS011;33812;46.480;6.834;2023-01-15T06:49:20;0.50;;;0.45;;
48034;SDS011;33812;46.480;6.834;2023-01-15T06:53:22;0.50;;;0.50;;
48034;SDS011;33812;46.480;6.834;2023-01-15T06:57:23;0.50;;;0.40;;
48034;SDS011;33812;46.480;6.834;2023-01-15T07:01:25;0.80;;;0.50;;
48034;SDS011;33812;46.480;6.834;2023-01-15T07:05:31;0.50;;;0.50;;
48034;SDS011;33812;46.480;6.834;2023-01-15T07:09:33;6.53;;;0.60;;
48034;SDS011;33812;46.480;6.834;2023-01-15T07:13:35;1.83;;;0.43;;
48034;SDS011;33812;46.480;6.834;2023-01-15T07:17:37;1.23;;;0.70;;
48034;SDS011;33812;46.480;6.834;2023-01-15T07:21:40;0.38;;;0.38;;
48034;SDS011;33812;46.480;6.834;2023-01-15T07:25:42;0.90;;;0.77;;
48034;SDS011;33812;46.480;6.834;2023-01-15T07:29:43;1.98;;;0.60;;
48034;SDS011;33812;46.480;6.834;2023-01-15T07:33:45;1.08;;;0.82;;
48034;SDS011;33812;46.480;6.834;2023-01-15T07:37:50;1.20;;;0.70;;
48034;SDS011;33812;46.480;6.834;2023-01-15T07:41:52;1.13;;;0.68;;
48034;SDS011;33812;46.480;6.834;2023-01-15T07:46:12;1.33;;;0.75;;
48034;SDS011;33812;46.480;6.834;2023-01-15T07:50:31;4.72;;;0.80;;
48034;SDS011;33812;46.480;6.834;2023-01-15T07:54:34;2.88;;;0.70;;
48034;SDS011;33812;46.480;6.834;2023-01-15T07:58:36;1.30;;;0.55;;
48034;SDS011;33812;46.480;6.834;2023-01-15T08:02:37;0.68;;;0.55;;
48034;SDS011;33812;46.480;6.834;2023-01-15T08:06:39;1.02;;;0.60;;
48034;SDS011;33812;46.480;6.834;2023-01-15T08:10:43;0.68;;;0.55;;
48034;SDS011;33812;46.480;6.834;2023-01-15T08:14:59;1.83;;;0.50;;
48034;SDS011;33812;46.480;6.834;2023-01-15T08:19:16;0.70;;;0.50;;
48034;SDS011;33812;46.480;6.834;2023-01-15T08:23:17;0.60;;;0.40;;
48034;SDS011;33812;46.480;6.834;2023-01-15T08:27:20;0.50;;;0.40;;
48034;SDS011;33812;46.480;6.834;2023-01-15T08:31:22;0.73;;;0.70;;
48034;SDS011;33812;46.480;6.834;2023-01-15T08:35:24;1.67;;;0.50;;
48034;SDS011;33812;46.480;6.834;2023-01-15T08:39:26;1.98;;;0.60;;
48034;SDS011;33812;46.480;6.834;2023-01-15T08:43:31;1.38;;;0.50;;
48034;SDS011;33812;46.480;6.834;2023-01-15T08:47:33;1.30;;;0.77;;
48034;SDS011;33812;46.480;6.834;2023-01-15T08:51:36;1.15;;;0.60;;
48034;SDS011;33812;46.480;6.834;2023-01-15T08:55:38;2.42;;;0.68;;
48034;SDS011;33812;46.480;6.834;2023-01-15T08:59:41;1.63;;;0.52;;
48034;SDS011;33812;46.480;6.834;2023-01-15T09:03:43;2.17;;;0.52;;
48034;SDS011;33812;46.480;6.834;2023-01-15T09:07:44;1.38;;;0.57;;
48034;SDS011;33812;46.480;6.834;2023-01-15T09:11:46;0.70;;;0.43;;
48034;SDS011;33812;46.480;6.834;2023-01-15T09:15:49;0.60;;;0.50;;
48034;SDS011;33812;46.480;6.834;2023-01-15T09:19:51;0.60;;;0.30;;
48034;SDS011;33812;46.480;6.834;2023-01-15T09:23:53;0.52;;;0.40;;
48034;SDS011;33812;46.480;6.834;2023-01-15T09:27:54;0.35;;;0.30;;
48034;SDS011;33812;46.480;6.834;2023-01-15T09:31:58;0.20;;;0.20;;
48034;SDS011;33812;46.480;6.834;2023-01-15T09:35:59;4.63;;;0.38;;
48034;SDS011;33812;46.480;6.834;2023-01-15T09:40:01;0.88;;;0.45;;
48034;SDS011;33812;46.480;6.834;2023-01-15T09:44:14;3.42;;;0.30;;
48034;SDS011;33812;46.480;6.834;2023-01-15T09:48:29;0.20;;;0.20;;
48034;SDS011;33812;46.480;6.834;2023-01-15T09:52:53;0.32;;;0.30;;
48034;SDS011;33812;46.480;6.834;2023-01-15T09:57:07;0.20;;;0.20;;
48034;SDS011;33812;46.480;6.834;2023-01-15T10:01:12;0.32;;;0.30;;
48034;SDS011;33812;46.480;6.834;2023-01-15T10:05:21;5.38;;;0.30;;
48034;SDS011;33812;46.480;6.834;2023-01-15T10:09:29;3.13;;;0.60;;
48034;SDS011;33812;46.480;6.834;2023-01-15T10:13:37;0.32;;;0.30;;
48034;SDS011;33812;46.480;6.834;2023-01-15T10:17:44;4.07;;;0.40;;
48034;SDS011;33812;46.480;6.834;2023-01-15T10:21:49;4.93;;;0.38;;
48034;SDS011;33812;46.480;6.834;2023-01-15T10:25:57;0.50;;;0.20;;
48034;SDS011;33812;46.480;6.834;2023-01-15T10:30:05;2.58;;;0.28;;
48034;SDS011;33812;46.480;6.834;2023-01-15T10:34:21;0.30;;;0.30;;
48034;SDS011;33812;46.480;6.834;2023-01-15T10:38:48;0.40;;;0.17;;
48034;SDS011;33812;46.480;6.834;2023-01-15T10:43:00;1.25;;;0.25;;
48034;SDS011;33812;46.480;6.834;2023-01-15T10:47:09;2.50;;;0.40;;
48034;SDS011;33812;46.480;6.834;2023-01-15T10:51:14;0.35;;;0.32;;
48034;SDS011;33812;46.480;6.834;2023-01-15T10:55:22;0.17;;;0.17;;
48034;SDS011;33812;46.480;6.834;2023-01-15T10:59:33;0.45;;;0.28;;
48034;SDS011;33812;46.480;6.834;2023-01-15T11:03:40;0.73;;;0.20;;
48034;SDS011;33812;46.480;6.834;2023-01-15T11:07:44;0.93;;;0.63;;
48034;SDS011;33812;46.480;6.834;2023-01-15T11:11:49;2.63;;;0.20;;
48034;SDS011;33812;46.480;6.834;2023-01-15T11:16:18;0.40;;;0.30;;
48034;SDS011;33812;46.480;6.834;2023-01-15T11:20:42;0.28;;;0.10;;
48034;SDS011;33812;46.480;6.834;2023-01-15T11:24:45;0.10;;;0.10;;
48034;SDS011;33812;46.480;6.834;2023-01-15T11:28:50;0.30;;;0.15;;
48034;SDS011;33812;46.480;6.834;2023-01-15T11:32:53;0.20;;;0.20;;
48034;SDS011;33812;46.480;6.834;2023-01-15T11:37:00;0.00;;;0.00;;
48034;SDS011;33812;46.480;6.834;2023-01-15T11:41:02;0.13;;;0.13;;
48034;SDS011;33812;46.480;6.834;2023-01-15T11:45:12;0.20;;;0.20;;
48034;SDS011;33812;46.480;6.834;2023-01-15T11:49:33;0.10;;;0.10;;
48034;SDS011;33812;46.480;6.834;2023-01-15T11:53:56;0.28;;;0.10;;
48034;SDS011;33812;46.480;6.834;2023-01-15T11:58:02;0.75;;;0.10;;
48034;SDS011;33812;46.480;6.834;2023-01-15T12:02:14;0.10;;;0.10;;
48034;SDS011;33812;46.480;6.834;2023-01-15T12:06:21;0.63;;;0.20;;
48034;SDS011;33812;46.480;6.834;2023-01-15T12:10:24;0.10;;;0.10;;
48034;SDS011;33812;46.480;6.834;2023-01-15T12:14:50;0.73;;;0.20;;
48034;SDS011;33812;46.480;6.834;2023-01-15T12:19:05;0.20;;;0.20;;
48034;SDS011;33812;46.480;6.834;2023-01-15T12:27:58;0.90;;;0.20;;
48034;SDS011;33812;46.480;6.834;2023-01-15T12:32:06;0.17;;;0.10;;
48034;SDS011;33812;46.480;6.834;2023-01-15T12:36:14;0.00;;;0.00;;
48034;SDS011;33812;46.480;6.834;2023-01-15T12:40:23;0.50;;;0.20;;
48034;SDS011;33812;46.480;6.834;2023-01-15T12:44:30;0.60;;;0.20;;
48034;SDS011;33812;46.480;6.834;2023-01-15T12:48:55;0.17;;;0.17;;
48034;SDS011;33812;46.480;6.834;2023-01-15T12:53:05;0.20;;;0.10;;
48034;SDS011;33812;46.480;6.834;2023-01-15T15:57:42;0.40;;;0.40;;
48034;SDS011;33812;46.480;6.834;2023-01-15T16:01:47;1.15;;;0.57;;
48034;SDS011;33812;46.480;6.834;2023-01-15T16:05:56;2.70;;;0.52;;
48034;SDS011;33812;46.480;6.834;2023-01-15T16:09:59;1.08;;;0.45;;
48034;SDS011;33812;46.480;6.834;2023-01-15T16:14:07;2.17;;;0.30;;
48034;SDS011;33812;46.480;6.834;2023-01-15T16:18:16;0.63;;;0.50;;
48034;SDS011;33812;46.480;6.834;2023-01-15T16:22:21;0.52;;;0.40;;
48034;SDS011;33812;46.480;6.834;2023-01-15T16:26:27;0.52;;;0.45;;
48034;SDS011;33812;46.480;6.834;2023-01-15T16:30:34;2.08;;;0.50;;
48034;SDS011;33812;46.480;6.834;2023-01-15T16:34:36;0.55;;;0.40;;
48034;SDS011;33812;46.480;6.834;2023-01-15T16:38:39;1.58;;;0.57;;
48034;SDS011;33812;46.480;6.834;2023-01-15T16:42:42;0.77;;;0.40;;
48034;SDS011;33812;46.480;6.834;2023-01-15T16:46:48;0.88;;;0.52;;
48034;SDS011;33812;46.480;6.834;2023-01-15T16:50:55;0.80;;;0.52;;
48034;SDS011;33812;46.480;6.834;2023-01-15T16:54:58;1.23;;;0.60;;
48034;SDS011;33812;46.480;6.834;2023-01-15T16:59:00;1.95;;;0.70;;
48034;SDS011;33812;46.480;6.834;2023-01-15T17:03:05;2.72;;;0.85;;
48034;SDS011;33812;46.480;6.834;2023-01-15T17:07:15;2.85;;;1.13;;
48034;SDS011;33812;46.480;6.834;2023-01-15T17:11:20;6.72;;;1.00;;
48034;SDS011;33812;46.480;6.834;2023-01-15T17:19:31;5.80;;;1.45;;
48034;SDS011;33812;46.480;6.834;2023-01-15T17:23:33;2.75;;;0.82;;
48034;SDS011;33812;46.480;6.834;2023-01-15T17:27:36;2.88;;;0.80;;
48034;SDS011;33812;46.480;6.834;2023-01-15T17:31:38;5.57;;;1.10;;
48034;SDS011;33812;46.480;6.834;2023-01-15T17:35:44;1.67;;;0.70;;
48034;SDS011;33812;46.480;6.834;2023-01-15T17:39:47;2.63;;;0.77;;
48034;SDS011;33812;46.480;6.834;2023-01-15T17:43:49;10.07;;;0.90;;
48034;SDS011;33812;46.480;6.834;2023-01-15T17:47:51;2.42;;;0.82;;
48034;SDS011;33812;46.480;6.834;2023-01-15T17:51:54;14.25;;;1.20;;
48034;SDS011;33812;46.480;6.834;2023-01-15T17:55:56;3.75;;;1.25;;
48034;SDS011;33812;46.480;6.834;2023-01-15T18:00:15;6.40;;;1.10;;
48034;SDS011;33812;46.480;6.834;2023-01-15T18:04:36;2.58;;;0.80;;
48034;SDS011;33812;46.480;6.834;2023-01-15T18:09:00;2.72;;;0.90;;
48034;SDS011;33812;46.480;6.834;2023-01-15T18:13:04;2.72;;;1.27;;
48034;SDS011;33812;46.480;6.834;2023-01-15T18:17:07;2.88;;;1.30;;
48034;SDS011;33812;46.480;6.834;2023-01-15T18:21:10;4.07;;;1.15;;
48034;SDS011;33812;46.480;6.834;2023-01-15T18:25:13;1.55;;;1.00;;
48034;SDS011;33812;46.480;6.834;2023-01-15T18:29:15;3.10;;;0.90;;
48034;SDS011;33812;46.480;6.834;2023-01-15T18:33:17;0.95;;;0.65;;
48034;SDS011;33812;46.480;6.834;2023-01-15T18:37:19;2.00;;;0.82;;
48034;SDS011;33812;46.480;6.834;2023-01-15T18:41:22;4.40;;;0.90;;
48034;SDS011;33812;46.480;6.834;2023-01-15T18:45:38;2.33;;;0.90;;
48034;SDS011;33812;46.480;6.834;2023-01-15T18:49:57;5.45;;;0.98;;
48034;SDS011;33812;46.480;6.834;2023-01-15T18:53:59;1.60;;;0.88;;
48034;SDS011;33812;46.480;6.834;2023-01-15T18:58:02;2.50;;;0.80;;
48034;SDS011;33812;46.480;6.834;2023-01-15T19:02:06;2.20;;;0.90;;
48034;SDS011;33812;46.480;6.834;2023-01-15T19:06:09;2.67;;;0.98;;
48034;SDS011;33812;46.480;6.834;2023-01-15T19:10:12;1.85;;;1.02;;
48034;SDS011;33812;46.480;6.834;2023-01-15T19:14:16;3.55;;;0.93;;
48034;SDS011;33812;46.480;6.834;2023-01-15T19:18:36;2.58;;;1.00;;
48034;SDS011;33812;46.480;6.834;2023-01-15T19:22:52;1.25;;;0.90;;
48034;SDS011;33812;46.480;6.834;2023-01-15T19:27:00;1.58;;;1.00;;
48034;SDS011;33812;46.480;6.834;2023-01-15T19:31:07;3.45;;;0.80;;
48034;SDS011;33812;46.480;6.834;2023-01-15T19:35:26;4.10;;;0.98;;
48034;SDS011;33812;46.480;6.834;2023-01-15T19:39:28;2.88;;;1.00;;
48034;SDS011;33812;46.480;6.834;2023-01-15T19:43:31;1.27;;;0.95;;
48034;SDS011;33812;46.480;6.834;2023-01-15T19:47:50;4.32;;;1.15;;
48034;SDS011;33812;46.480;6.834;2023-01-15T19:52:10;2.33;;;0.82;;
48034;SDS011;33812;46.480;6.834;2023-01-15T19:56:43;1.63;;;1.02;;
48034;SDS011;33812;46.480;6.834;2023-01-15T20:00:46;1.17;;;0.95;;
48034;SDS011;33812;46.480;6.834;2023-01-15T20:04:50;1.65;;;0.90;;
48034;SDS011;33812;46.480;6.834;2023-01-15T20:08:51;1.52;;;0.95;;
48034;SDS011;33812;46.480;6.834;2023-01-15T20:12:54;1.65;;;0.90;;
48034;SDS011;33812;46.480;6.834;2023-01-15T20:17:13;2.53;;;0.80;;
48034;SDS011;33812;46.480;6.834;2023-01-15T20:21:16;1.92;;;1.30;;
48034;SDS011;33812;46.480;6.834;2023-01-15T20:25:18;4.60;;;0.85;;
48034;SDS011;33812;46.480;6.834;2023-01-15T20:29:20;4.00;;;0.98;;
48034;SDS011;33812;46.480;6.834;2023-01-15T20:33:22;1.73;;;0.90;;
48034;SDS011;33812;46.480;6.834;2023-01-15T20:37:25;1.98;;;0.80;;
48034;SDS011;33812;46.480;6.834;2023-01-15T20:41:27;1.77;;;0.80;;
48034;SDS011;33812;46.480;6.834;2023-01-15T20:45:46;1.95;;;0.75;;
48034;SDS011;33812;46.480;6.834;2023-01-15T20:49:48;1.10;;;0.80;;
48034;SDS011;33812;46.480;6.834;2023-01-15T20:53:53;1.40;;;0.82;;
48034;SDS011;33812;46.480;6.834;2023-01-15T20:57:54;1.90;;;0.90;;
48034;SDS011;33812;46.480;6.834;2023-01-15T21:01:56;1.58;;;0.95;;
48034;SDS011;33812;46.480;6.834;2023-01-15T21:05:59;2.13;;;0.80;;
48034;SDS011;33812;46.480;6.834;2023-01-15T21:10:03;0.90;;;0.63;;
48034;SDS011;33812;46.480;6.834;2023-01-15T21:14:06;1.10;;;0.75;;
48034;SDS011;33812;46.480;6.834;2023-01-15T21:18:08;1.35;;;0.73;;
48034;SDS011;33812;46.480;6.834;2023-01-15T21:22:10;4.32;;;0.80;;
48034;SDS011;33812;46.480;6.834;2023-01-15T21:26:13;5.15;;;0.65;;
48034;SDS011;33812;46.480;6.834;2023-01-15T21:30:16;0.40;;;0.40;;
48034;SDS011;33812;46.480;6.834;2023-01-15T21:34:20;1.00;;;0.60;;
48034;SDS011;33812;46.480;6.834;2023-01-15T21:38:21;1.23;;;0.70;;
48034;SDS011;33812;46.480;6.834;2023-01-15T21:42:24;2.58;;;0.80;;
48034;SDS011;33812;46.480;6.834;2023-01-15T21:46:44;1.27;;;0.60;;
48034;SDS011;33812;46.480;6.834;2023-01-15T21:50:45;1.90;;;0.68;;
48034;SDS011;33812;46.480;6.834;2023-01-15T21:54:47;0.93;;;0.50;;
48034;SDS011;33812;46.480;6.834;2023-01-15T21:58:52;1.90;;;0.68;;
48034;SDS011;33812;46.480;6.834;2023-01-15T22:02:54;1.88;;;0.50;;
48034;SDS011;33812;46.480;6.834;2023-01-15T22:06:57;1.30;;;0.57;;
48034;SDS011;33812;46.480;6.834;2023-01-15T22:11:02;5.65;;;0.60;;
48034;SDS011;33812;46.480;6.834;2023-01-15T22:15:10;1.63;;;0.73;;
48034;SDS011;33812;46.480;6.834;2023-01-15T22:19:14;1.73;;;0.80;;
48034;SDS011;33812;46.480;6.834;2023-01-15T22:23:18;1.90;;;0.80;;
48034;SDS011;33812;46.480;6.834;2023-01-15T22:27:20;2.25;;;0.60;;
48034;SDS011;33812;46.480;6.834;2023-01-15T22:31:23;0.60;;;0.60;;
48034;SDS011;33812;46.480;6.834;2023-01-15T22:35:26;0.95;;;0.68;;
48034;SDS011;33812;46.480;6.834;2023-01-15T22:39:28;1.05;;;0.57;;
48034;SDS011;33812;46.480;6.834;2023-01-15T22:43:30;1.75;;;0.70;;
48034;SDS011;33812;46.480;6.834;2023-01-15T22:47:34;1.23;;;0.75;;
48034;SDS011;33812;46.480;6.834;2023-01-15T22:51:36;0.55;;;0.38;;
48034;SDS011;33812;46.480;6.834;2023-01-15T22:55:38;1.33;;;0.80;;
48034;SDS011;33812;46.480;6.834;2023-01-15T22:59:40;1.85;;;0.85;;
48034;SDS011;33812;46.480;6.834;2023-01-15T23:03:43;0.63;;;0.50;;
48034;SDS011;33812;46.480;6.834;2023-01-15T23:07:44;1.25;;;0.50;;
48034;SDS011;33812;46.480;6.834;2023-01-15T23:11:47;0.65;;;0.45;;
48034;SDS011;33812;46.480;6.834;2023-01-15T23:15:54;0.98;;;0.60;;
48034;SDS011;33812;46.480;6.834;2023-01-15T23:19:58;0.60;;;0.40;;
48034;SDS011;33812;46.480;6.834;2023-01-15T23:24:00;0.73;;;0.52;;
48034;SDS011;33812;46.480;6.834;2023-01-15T23:28:02;0.60;;;0.50;;
48034;SDS011;33812;46.480;6.834;2023-01-15T23:32:04;0.80;;;0.52;;
48034;SDS011;33812;46.480;6.834;2023-01-15T23:36:08;0.95;;;0.60;;
48034;SDS011;33812;46.480;6.834;2023-01-15T23:40:11;0.93;;;0.60;;
48034;SDS011;33812;46.480;6.834;2023-01-15T23:44:13;0.60;;;0.50;;
48034;SDS011;33812;46.480;6.834;2023-01-15T23:48:51;1.13;;;0.60;;
48034;SDS011;33812;46.480;6.834;2023-01-15T23:52:54;0.80;;;0.47;;
48034;SDS011;33812;46.480;6.834;2023-01-15T23:56:59;0.80;;;0.50;;
